Time;durP1;ratioP1;P1;durP2;ratioP2;P2;SDS_P1;SDS_P2;PMS_P1;PMS_P2;Temp;Humidity;BMP_temperature;BMP_pressure;BME280_temperature;BME280_humidity;BME280_pressure;Samples;Min_cycle;Max_cycle;Signal;HPM_P1;HPM_P2
2022/12/25 05:02:21;;;;;;;4.50;3.10;;;8.90;99.90;;;;;;5124065;23;20496;-74
2022/12/25 05:04:48;;;;;;;6.20;3.00;;;8.90;99.90;;;;;;4986207;28;20966;-74
2022/12/25 05:07:15;;;;;;;7.53;3.27;;;8.90;99.90;;;;;;4985406;28;21119;-73
2022/12/25 05:09:41;;;;;;;3.40;3.10;;;9.00;99.90;;;;;;4986012;28;20857;-74
2022/12/25 05:12:08;;;;;;;3.80;2.90;;;9.00;99.90;;;;;;4970420;28;20472;-74
2022/12/25 05:14:35;;;;;;;3.03;2.70;;;8.90;99.90;;;;;;4966781;28;20456;-73
2022/12/25 05:17:02;;;;;;;5.80;3.07;;;8.90;99.90;;;;;;4966141;28;20472;-74
2022/12/25 05:19:30;;;;;;;5.00;3.50;;;9.00;99.90;;;;;;4966510;28;20460;-74
2022/12/25 05:21:57;;;;;;;3.87;3.00;;;8.90;99.90;;;;;;4965268;28;20472;-73
2022/12/25 05:24:26;;;;;;;3.10;2.80;;;9.00;99.90;;;;;;4967082;28;20437;-74
2022/12/25 05:26:53;;;;;;;5.30;3.00;;;9.00;99.90;;;;;;4966269;28;20543;-73
2022/12/25 05:29:20;;;;;;;3.27;3.00;;;9.00;99.90;;;;;;4966911;28;20500;-73
2022/12/25 05:31:47;;;;;;;7.07;2.50;;;9.00;99.90;;;;;;4965284;28;20468;-74
2022/12/25 05:34:14;;;;;;;4.80;2.60;;;9.00;99.90;;;;;;4966638;28;20451;-74
2022/12/25 05:36:42;;;;;;;3.80;2.83;;;9.00;99.90;;;;;;4966307;28;20460;-74
2022/12/25 05:39:08;;;;;;;3.33;2.77;;;9.00;99.90;;;;;;4966707;28;20465;-73
2022/12/25 05:41:35;;;;;;;3.73;2.63;;;9.10;99.90;;;;;;4966376;28;20483;-73
2022/12/25 05:44:02;;;;;;;4.27;2.50;;;9.10;99.90;;;;;;4966420;28;21168;-74
2022/12/25 05:46:29;;;;;;;2.20;2.03;;;9.10;99.90;;;;;;4966031;28;20838;-74
2022/12/25 05:48:55;;;;;;;5.27;2.50;;;9.10;99.90;;;;;;4967096;28;20453;-74
2022/12/25 05:51:22;;;;;;;3.40;2.87;;;9.00;99.90;;;;;;4970446;28;20503;-74
2022/12/25 05:53:50;;;;;;;3.27;2.80;;;9.00;99.90;;;;;;4970605;28;20460;-74
2022/12/25 05:56:17;;;;;;;3.33;2.60;;;9.00;99.90;;;;;;4970259;28;20460;-73
2022/12/25 05:58:44;;;;;;;3.57;2.93;;;9.00;99.90;;;;;;4970649;28;20452;-74
2022/12/25 06:01:12;;;;;;;4.13;3.40;;;9.00;99.90;;;;;;4970199;28;20480;-73
2022/12/25 06:03:39;;;;;;;3.50;3.00;;;9.00;99.90;;;;;;4970651;28;20445;-73
2022/12/25 06:06:07;;;;;;;4.93;3.60;;;9.00;99.90;;;;;;4969818;28;20456;-74
2022/12/25 06:08:34;;;;;;;10.13;4.80;;;9.00;99.90;;;;;;4970487;28;20495;-73
2022/12/25 06:11:04;;;;;;;6.13;3.77;;;9.00;99.90;;;;;;4969985;28;21068;-74
2022/12/25 06:13:32;;;;;;;6.37;3.70;;;9.00;99.90;;;;;;4970320;28;20452;-73
2022/12/25 06:15:58;;;;;;;11.10;6.75;;;9.00;99.90;;;;;;4968844;28;20434;-73
2022/12/25 06:18:25;;;;;;;11.87;7.20;;;9.20;99.90;;;;;;4970351;28;20213;-73
2022/12/25 06:20:52;;;;;;;15.80;9.17;;;9.30;99.90;;;;;;4970084;28;20491;-74
2022/12/25 06:23:19;;;;;;;13.00;8.07;;;9.20;99.90;;;;;;4970041;28;20452;-74
2022/12/25 06:25:45;;;;;;;9.80;7.30;;;9.30;99.90;;;;;;4969878;28;20460;-73
2022/12/25 06:28:14;;;;;;;7.50;6.23;;;9.20;99.90;;;;;;4969608;28;20463;-74
2022/12/25 06:30:40;;;;;;;7.57;6.07;;;9.20;99.90;;;;;;4968448;28;20507;-74
2022/12/25 06:33:07;;;;;;;10.97;9.73;;;9.20;99.90;;;;;;4970102;28;20449;-73
2022/12/25 06:35:34;;;;;;;32.17;23.50;;;9.20;99.90;;;;;;4970256;28;20837;-73
2022/12/25 06:38:01;;;;;;;21.97;17.63;;;9.20;99.90;;;;;;4969140;28;20584;-74
2022/12/25 06:40:27;;;;;;;14.93;10.97;;;9.20;99.90;;;;;;4969760;28;20491;-74
2022/12/25 06:42:54;;;;;;;9.33;7.50;;;9.20;99.90;;;;;;4970036;28;20484;-73
2022/12/25 06:45:22;;;;;;;8.33;6.80;;;9.20;99.90;;;;;;4970079;28;20456;-74
2022/12/25 06:47:49;;;;;;;10.40;7.70;;;9.20;99.90;;;;;;4968948;28;20467;-73
2022/12/25 06:50:16;;;;;;;10.33;7.20;;;9.20;99.90;;;;;;4969571;28;20511;-74
2022/12/25 06:52:43;;;;;;;6.30;5.40;;;9.10;99.90;;;;;;4969830;28;20456;-74
2022/12/25 06:55:10;;;;;;;9.10;4.93;;;9.10;99.90;;;;;;4969550;28;20463;-74
2022/12/25 06:57:36;;;;;;;9.17;6.90;;;9.10;99.90;;;;;;4968653;28;20457;-74
2022/12/25 07:00:05;;;;;;;11.13;7.50;;;9.10;99.90;;;;;;4969347;28;20818;-74
2022/12/25 07:02:34;;;;;;;7.57;6.70;;;9.10;99.90;;;;;;4969895;28;20579;-74
2022/12/25 07:05:03;;;;;;;7.50;6.80;;;9.10;99.90;;;;;;4969545;28;20460;-74
2022/12/25 07:07:30;;;;;;;9.67;7.63;;;9.10;99.90;;;;;;4968426;28;20452;-73
2022/12/25 07:09:57;;;;;;;8.53;7.17;;;9.00;99.90;;;;;;4969428;28;20488;-73
2022/12/25 07:12:24;;;;;;;11.17;7.13;;;9.00;99.90;;;;;;4969240;28;20479;-70
2022/12/25 07:14:55;;;;;;;9.00;7.07;;;9.00;99.90;;;;;;4969206;28;20956;-73
2022/12/25 07:17:22;;;;;;;9.90;6.07;;;9.00;99.90;;;;;;4968661;28;20452;-73
2022/12/25 07:19:51;;;;;;;7.50;6.80;;;9.00;99.90;;;;;;4969316;28;20452;-72
2022/12/25 07:22:18;;;;;;;9.60;7.60;;;9.00;99.90;;;;;;4969189;28;20563;-73
2022/12/25 07:24:44;;;;;;;10.87;8.00;;;9.00;99.90;;;;;;4968905;28;20475;-73
2022/12/25 07:27:11;;;;;;;11.73;8.37;;;9.00;99.90;;;;;;4982306;28;20971;-74
2022/12/25 07:29:38;;;;;;;9.93;8.70;;;9.00;99.90;;;;;;4988358;28;20451;-73
2022/12/25 07:32:06;;;;;;;14.87;9.40;;;9.00;99.90;;;;;;4988480;28;20486;-74
2022/12/25 07:34:32;;;;;;;11.07;9.00;;;9.00;99.90;;;;;;4972712;28;20460;-73
2022/12/25 07:37:01;;;;;;;15.57;11.83;;;9.00;99.90;;;;;;4979587;28;20901;-72
2022/12/25 07:39:27;;;;;;;24.80;14.83;;;9.00;99.90;;;;;;4989121;28;20458;-72
2022/12/25 07:41:54;;;;;;;23.23;17.73;;;9.00;99.90;;;;;;4988189;28;20485;-70
2022/12/25 07:44:21;;;;;;;23.10;15.97;;;9.00;99.90;;;;;;4986776;28;20975;-74
2022/12/25 07:46:48;;;;;;;20.30;13.73;;;9.00;99.90;;;;;;4987742;28;20454;-77
2022/12/25 07:49:14;;;;;;;15.80;11.87;;;9.00;99.90;;;;;;4976109;28;20456;-74
2022/12/25 07:51:41;;;;;;;18.47;11.93;;;9.00;99.90;;;;;;4969014;28;20500;-75
2022/12/25 07:54:09;;;;;;;17.97;10.23;;;9.00;99.90;;;;;;4969562;28;20465;-75
2022/12/25 07:56:36;;;;;;;11.63;9.40;;;9.00;99.90;;;;;;4968513;28;20450;-76
2022/12/25 07:59:03;;;;;;;15.03;9.37;;;9.10;99.90;;;;;;4969045;28;20271;-73
2022/12/25 08:01:30;;;;;;;12.80;7.37;;;9.20;99.90;;;;;;4969626;28;20472;-72
2022/12/25 08:03:58;;;;;;;10.00;7.90;;;9.20;99.90;;;;;;4970793;28;20457;-72
2022/12/25 08:06:28;;;;;;;8.47;7.50;;;9.10;99.90;;;;;;4970996;28;20471;-72
2022/12/25 08:08:55;;;;;;;8.00;6.23;;;9.10;99.90;;;;;;4971552;28;20463;-72
2022/12/25 08:11:23;;;;;;;8.07;6.30;;;9.00;99.90;;;;;;4970475;28;20562;-72
2022/12/25 08:13:50;;;;;;;5.20;4.70;;;9.00;99.90;;;;;;4970852;28;20453;-72
2022/12/25 08:16:17;;;;;;;9.90;7.03;;;9.00;99.90;;;;;;4970888;28;20467;-72
2022/12/25 08:18:44;;;;;;;8.20;5.73;;;8.90;99.90;;;;;;4971650;28;20463;-72
2022/12/25 08:21:12;;;;;;;6.10;4.70;;;8.80;99.90;;;;;;4971350;28;20473;-71
2022/12/25 08:23:41;;;;;;;9.40;4.43;;;8.70;99.90;;;;;;4971066;28;20463;-72
2022/12/25 08:26:10;;;;;;;5.97;4.60;;;8.70;99.90;;;;;;4970216;28;20448;-72
2022/12/25 08:28:39;;;;;;;16.80;10.27;;;8.80;99.90;;;;;;4970237;28;20464;-72
2022/12/25 08:31:07;;;;;;;10.37;7.40;;;8.80;99.90;;;;;;4969793;28;20888;-76
2022/12/25 08:33:35;;;;;;;10.43;5.83;;;8.80;99.90;;;;;;4970341;28;20456;-75
2022/12/25 08:36:03;;;;;;;4.97;4.40;;;8.80;99.90;;;;;;4968997;28;20452;-76
2022/12/25 08:38:30;;;;;;;6.00;4.17;;;8.90;99.90;;;;;;4969805;28;20480;-77
2022/12/25 08:40:56;;;;;;;7.23;4.80;;;8.90;99.90;;;;;;4969221;28;20480;-76
2022/12/25 08:43:23;;;;;;;4.60;3.83;;;8.90;99.90;;;;;;4975825;28;20460;-77
2022/12/25 08:45:51;;;;;;;5.27;4.43;;;9.00;99.90;;;;;;4973988;28;20460;-77
2022/12/25 08:48:18;;;;;;;6.93;4.50;;;9.00;99.90;;;;;;4974888;28;20462;-77
2022/12/25 08:50:46;;;;;;;11.33;7.80;;;9.10;99.90;;;;;;4969274;28;20497;-75
2022/12/25 08:53:13;;;;;;;10.30;7.27;;;9.10;99.90;;;;;;4970218;28;20457;-76
2022/12/25 08:55:40;;;;;;;12.90;7.87;;;9.10;99.90;;;;;;4971308;28;20444;-79
2022/12/25 08:58:07;;;;;;;9.60;7.40;;;9.20;99.90;;;;;;4968530;28;20456;-78
2022/12/25 09:00:34;;;;;;;32.07;26.00;;;9.20;99.90;;;;;;4969234;28;20850;-75
2022/12/25 09:03:02;;;;;;;21.00;17.20;;;9.20;99.90;;;;;;4970264;28;20456;-76
2022/12/25 09:05:30;;;;;;;14.80;11.40;;;9.20;99.90;;;;;;4969853;28;20453;-76
2022/12/25 09:07:56;;;;;;;15.13;12.03;;;9.20;99.90;;;;;;4968717;28;20480;-73
2022/12/25 09:10:23;;;;;;;13.40;11.13;;;9.30;99.90;;;;;;4969735;28;20463;-77
2022/12/25 09:12:50;;;;;;;12.83;10.37;;;9.30;99.90;;;;;;4970223;28;20467;-75
2022/12/25 09:15:17;;;;;;;14.50;11.47;;;9.30;99.90;;;;;;4968876;28;20457;-79
2022/12/25 09:17:44;;;;;;;12.80;10.10;;;9.40;99.90;;;;;;4967621;28;20463;-76
2022/12/25 09:20:12;;;;;;;13.00;10.30;;;9.40;99.90;;;;;;4968206;28;20516;-76
2022/12/25 09:22:39;;;;;;;13.97;9.90;;;9.50;99.90;;;;;;4967726;28;21289;-75
2022/12/25 09:25:06;;;;;;;10.60;7.70;;;9.70;99.90;;;;;;4968224;28;20461;-75
2022/12/25 09:27:33;;;;;;;13.30;8.17;;;9.80;99.90;;;;;;4967403;28;20483;-75
2022/12/25 09:29:59;;;;;;;10.60;8.10;;;9.90;99.90;;;;;;4967598;28;20453;-73
2022/12/25 09:32:26;;;;;;;16.07;7.40;;;9.90;99.90;;;;;;4967191;28;20507;-73
2022/12/25 09:34:53;;;;;;;6.53;5.47;;;9.90;99.90;;;;;;4967056;28;20460;-73
2022/12/25 09:37:22;;;;;;;5.73;4.80;;;10.00;99.90;;;;;;4969385;28;20538;-77
2022/12/25 09:39:49;;;;;;;4.40;3.83;;;10.10;99.90;;;;;;4973633;28;20452;-79
2022/12/25 09:42:20;;;;;;;4.47;3.80;;;10.10;99.90;;;;;;4968443;28;20468;-73
2022/12/25 09:44:51;;;;;;;3.40;2.97;;;10.20;99.90;;;;;;4981707;28;20463;-73
2022/12/25 09:47:21;;;;;;;6.00;3.40;;;10.30;99.90;;;;;;4985608;28;20448;-74
2022/12/25 09:49:54;;;;;;;4.00;2.90;;;10.40;99.90;;;;;;4986548;28;20464;-73
2022/12/25 09:52:25;;;;;;;3.93;3.63;;;10.50;99.90;;;;;;4986372;28;20565;-73
2022/12/25 09:54:59;;;;;;;7.50;3.17;;;10.50;99.90;;;;;;4985947;28;20444;-74
2022/12/25 09:57:26;;;;;;;5.60;3.33;;;10.70;99.90;;;;;;4984984;28;20877;-74
2022/12/25 09:59:54;;;;;;;4.20;3.80;;;10.80;99.90;;;;;;4985256;28;20460;-73
2022/12/25 10:02:41;;;;;;;4.37;3.40;;;10.80;99.90;;;;;;4985630;28;20484;-73
2022/12/25 10:05:31;;;;;;;5.80;4.90;;;10.90;99.90;;;;;;4987044;28;20447;-73
2022/12/25 10:08:05;;;;;;;5.53;4.80;;;11.10;99.90;;;;;;4976586;28;20440;-74
2022/12/25 10:10:49;;;;;;;6.83;5.40;;;11.20;99.90;;;;;;4986643;28;20484;-77
2022/12/25 10:13:37;;;;;;;7.97;4.87;;;11.40;99.90;;;;;;4973429;28;20444;-79
2022/12/25 10:16:18;;;;;;;6.00;4.20;;;11.50;99.90;;;;;;4968994;28;21167;-74
2022/12/25 10:19:04;;;;;;;8.40;6.47;;;11.70;99.90;;;;;;4970141;28;20436;-76
2022/12/25 10:21:31;;;;;;;11.17;9.80;;;11.90;99.90;;;;;;4971896;28;20469;-75
2022/12/25 10:24:10;;;;;;;10.23;9.13;;;12.50;99.90;;;;;;4966771;28;20468;-73
2022/12/25 10:26:36;;;;;;;7.00;6.30;;;12.80;99.90;;;;;;4965879;28;20464;-74
2022/12/25 10:29:10;;;;;;;6.47;5.67;;;13.00;99.90;;;;;;4965931;28;20460;-74
2022/12/25 10:31:37;;;;;;;6.87;4.80;;;13.10;99.90;;;;;;4965190;28;20507;-73
2022/12/25 10:34:05;;;;;;;4.10;3.70;;;13.30;99.90;;;;;;4966623;28;21020;-64
2022/12/25 10:36:33;;;;;;;6.37;3.57;;;13.40;99.90;;;;;;4970719;28;20459;-64
2022/12/25 10:39:01;;;;;;;8.13;2.70;;;13.50;99.90;;;;;;4972101;28;20452;-63
2022/12/25 10:41:48;;;;;;;2.83;2.53;;;13.40;99.90;;;;;;4971917;28;20476;-64
2022/12/25 10:44:19;;;;;;;4.40;2.30;;;13.30;99.90;;;;;;4972405;28;20441;-63
2022/12/25 10:46:48;;;;;;;2.37;2.17;;;13.30;99.90;;;;;;4969859;28;20468;-74
2022/12/25 10:49:17;;;;;;;2.20;2.00;;;13.40;99.90;;;;;;4970603;28;20531;-74
2022/12/25 10:51:44;;;;;;;3.70;2.20;;;13.50;99.90;;;;;;4969871;28;20496;-74
2022/12/25 10:54:23;;;;;;;2.63;2.40;;;13.50;99.90;;;;;;4969964;28;21040;-73
2022/12/25 10:56:58;;;;;;;2.90;2.37;;;13.60;99.90;;;;;;4972766;28;20440;-73
2022/12/25 10:59:26;;;;;;;3.67;2.77;;;13.60;99.90;;;;;;4989426;28;20458;-72
2022/12/25 11:01:53;;;;;;;5.20;3.20;;;13.70;99.90;;;;;;4982685;28;21367;-74
2022/12/25 11:04:21;;;;;;;3.37;2.80;;;13.70;99.90;;;;;;4974754;28;20452;-75
2022/12/25 11:07:05;;;;;;;2.20;2.00;;;13.70;99.90;;;;;;4990242;28;21461;-78
2022/12/25 11:09:34;;;;;;;3.13;2.60;;;13.80;99.90;;;;;;4988903;28;20447;-73
2022/12/25 11:12:01;;;;;;;5.10;2.67;;;13.90;99.90;;;;;;4988581;28;20514;-74
2022/12/25 11:14:29;;;;;;;4.40;2.63;;;13.90;99.90;;;;;;4988348;28;20967;-74
2022/12/25 11:17:06;;;;;;;2.40;2.20;;;14.00;99.90;;;;;;4987661;28;20763;-73
2022/12/25 11:19:33;;;;;;;4.70;2.30;;;14.10;99.90;;;;;;4988496;28;20447;-73
2022/12/25 11:22:02;;;;;;;5.97;2.70;;;14.20;99.90;;;;;;4988248;28;20841;-73
2022/12/25 11:24:33;;;;;;;2.47;2.10;;;14.20;99.90;;;;;;4976142;28;20452;-73
2022/12/25 11:27:05;;;;;;;3.37;2.80;;;14.40;99.90;;;;;;4967226;28;20560;-74
2022/12/25 11:29:39;;;;;;;3.80;2.50;;;14.50;99.90;;;;;;4967510;28;20519;-74
2022/12/25 11:32:13;;;;;;;6.83;4.27;;;14.50;99.90;;;;;;4967550;28;20496;-74
2022/12/25 11:34:44;;;;;;;4.50;3.43;;;14.50;99.90;;;;;;4968842;28;20467;-74
2022/12/25 11:37:17;;;;;;;3.10;2.70;;;14.60;99.90;;;;;;4967420;28;20821;-74
2022/12/25 11:39:44;;;;;;;7.20;3.70;;;14.60;99.90;;;;;;4968567;28;20451;-73
2022/12/25 11:42:16;;;;;;;2.93;2.37;;;14.60;99.90;;;;;;4968338;28;20468;-73
2022/12/25 11:44:49;;;;;;;3.20;2.13;;;14.70;99.90;;;;;;4969088;28;20452;-74
2022/12/25 11:47:21;;;;;;;3.20;2.37;;;14.90;99.90;;;;;;4966971;28;20654;-74
2022/12/25 11:49:54;;;;;;;2.23;1.97;;;14.90;99.90;;;;;;4968046;28;20457;-74
2022/12/25 11:52:23;;;;;;;6.13;2.40;;;15.00;99.90;;;;;;4968443;28;20500;-74
2022/12/25 11:54:57;;;;;;;3.20;2.30;;;15.20;99.90;;;;;;4968036;28;20472;-74
2022/12/25 11:57:28;;;;;;;3.00;2.70;;;15.20;99.90;;;;;;4967618;28;20460;-74
2022/12/25 11:59:59;;;;;;;3.00;2.50;;;15.10;99.90;;;;;;4967835;28;20456;-74
2022/12/25 12:02:34;;;;;;;3.30;1.90;;;15.10;99.90;;;;;;4967479;28;20488;-74
2022/12/25 12:05:14;;;;;;;4.20;2.40;;;15.20;99.90;;;;;;4967507;28;20444;-74
2022/12/25 12:07:55;;;;;;;2.30;2.10;;;15.10;99.90;;;;;;4967140;28;20441;-74
2022/12/25 12:10:32;;;;;;;3.13;2.30;;;15.10;99.90;;;;;;4967777;28;20623;-74
2022/12/25 12:13:20;;;;;;;3.77;2.30;;;15.30;99.90;;;;;;4967816;28;20507;-74
2022/12/25 12:15:50;;;;;;;5.27;3.10;;;15.40;99.90;;;;;;4967013;28;20535;-74
2022/12/25 12:18:23;;;;;;;3.97;2.53;;;15.40;99.90;;;;;;4967273;28;20460;-74
2022/12/25 12:21:04;;;;;;;2.70;2.30;;;15.50;99.90;;;;;;4967492;28;20778;-74
2022/12/25 12:23:48;;;;;;;4.07;2.70;;;15.60;99.90;;;;;;4968157;28;20456;-73
2022/12/25 12:26:19;;;;;;;3.03;2.37;;;15.70;99.90;;;;;;4967359;28;20807;-74
2022/12/25 12:28:48;;;;;;;5.80;2.37;;;15.80;99.90;;;;;;4966977;28;20457;-76
2022/12/25 12:31:16;;;;;;;2.47;2.13;;;15.80;99.90;;;;;;4967987;28;20464;-74
2022/12/25 12:33:49;;;;;;;2.63;2.07;;;16.00;99.90;;;;;;4967392;28;20471;-74
2022/12/25 12:36:16;;;;;;;3.07;2.30;;;16.20;99.90;;;;;;4966486;28;20832;-74
2022/12/25 12:38:44;;;;;;;3.23;2.20;;;16.40;99.90;;;;;;4966703;28;20456;-74
2022/12/25 12:41:13;;;;;;;5.33;2.00;;;16.70;99.90;;;;;;4967278;28;20572;-74
2022/12/25 12:43:42;;;;;;;2.37;2.00;;;16.80;99.90;;;;;;4967150;28;20830;-74
2022/12/25 12:46:18;;;;;;;2.23;1.80;;;16.90;99.90;;;;;;4966363;28;20455;-73
2022/12/25 12:48:48;;;;;;;3.17;1.97;;;16.90;99.90;;;;;;4966833;28;20842;-74
2022/12/25 12:51:27;;;;;;;5.33;1.60;;;16.90;99.90;;;;;;4966883;28;21310;-73
2022/12/25 12:54:19;;;;;;;1.83;1.70;;;17.00;99.90;;;;;;4967004;28;20460;-74
2022/12/25 12:56:56;;;;;;;2.43;1.60;;;17.10;99.90;;;;;;4966514;28;20472;-74
2022/12/25 12:59:23;;;;;;;3.33;2.07;;;17.30;99.90;;;;;;4966382;28;20459;-74
2022/12/25 13:02:04;;;;;;;4.60;2.27;;;17.30;99.90;;;;;;4966387;28;20491;-74
2022/12/25 13:04:51;;;;;;;3.73;2.13;;;17.30;99.90;;;;;;4966923;28;20444;-74
2022/12/25 13:07:31;;;;;;;2.20;2.00;;;17.40;99.90;;;;;;4966250;28;20445;-73
2022/12/25 13:10:09;;;;;;;1.90;1.70;;;17.50;99.90;;;;;;4966294;28;20523;-74
2022/12/25 13:12:37;;;;;;;5.90;1.63;;;17.50;99.90;;;;;;4966414;28;20496;-74
2022/12/25 13:15:11;;;;;;;1.93;1.47;;;17.50;99.90;;;;;;4966476;28;20538;-73
2022/12/25 13:17:42;;;;;;;2.27;1.70;;;17.50;99.90;;;;;;4965939;28;20833;-73
2022/12/25 13:20:19;;;;;;;1.80;1.60;;;17.50;99.90;;;;;;4966498;28;20478;-74
2022/12/25 13:22:46;;;;;;;2.97;1.70;;;17.50;99.90;;;;;;4966743;28;20433;-74
2022/12/25 13:25:19;;;;;;;2.07;1.73;;;17.50;99.90;;;;;;4966434;28;20460;-74
2022/12/25 13:27:46;;;;;;;2.10;1.90;;;17.50;99.90;;;;;;4966020;28;20475;-73
2022/12/25 13:30:14;;;;;;;3.20;1.63;;;17.50;99.90;;;;;;4965961;28;20459;-74
2022/12/25 13:32:44;;;;;;;2.80;1.63;;;17.50;99.90;;;;;;4965608;28;21042;-74
2022/12/25 13:35:12;;;;;;;2.00;1.40;;;17.40;99.90;;;;;;4966218;28;20480;-73
2022/12/25 13:37:39;;;;;;;3.53;1.70;;;17.30;99.90;;;;;;4966087;28;20523;-74
2022/12/25 13:40:08;;;;;;;3.50;1.90;;;17.30;99.90;;;;;;4966781;28;20472;-73
2022/12/25 13:42:36;;;;;;;3.10;1.70;;;17.30;99.90;;;;;;4966056;28;20486;-74
2022/12/25 13:45:05;;;;;;;2.47;1.53;;;17.30;99.90;;;;;;4965635;28;20468;-73
2022/12/25 13:47:34;;;;;;;4.03;1.60;;;17.40;99.90;;;;;;4965968;28;20456;-74
2022/12/25 13:50:16;;;;;;;2.57;1.90;;;17.30;99.90;;;;;;4966431;28;20460;-74
2022/12/25 13:52:42;;;;;;;4.50;1.70;;;17.30;99.90;;;;;;4966288;28;20527;-74
2022/12/25 13:55:12;;;;;;;1.93;1.60;;;17.30;99.90;;;;;;4965721;28;20479;-74
2022/12/25 13:57:42;;;;;;;1.97;1.67;;;17.30;99.90;;;;;;4965821;28;20441;-74
2022/12/25 14:00:18;;;;;;;3.07;1.90;;;17.30;99.90;;;;;;4966605;28;20456;-74
2022/12/25 14:02:45;;;;;;;1.90;1.63;;;17.40;99.90;;;;;;4966378;28;20456;-74
2022/12/25 14:05:29;;;;;;;2.63;2.30;;;17.30;99.90;;;;;;4966833;28;20460;-74
2022/12/25 14:07:58;;;;;;;2.40;1.80;;;17.20;99.90;;;;;;4965583;28;20433;-74
2022/12/25 14:10:28;;;;;;;2.43;1.97;;;17.20;99.90;;;;;;4966979;28;20459;-73
2022/12/25 14:12:58;;;;;;;3.23;2.87;;;17.10;99.90;;;;;;4970193;28;20506;-74
2022/12/25 14:15:31;;;;;;;3.37;2.77;;;17.00;99.90;;;;;;4970265;28;20460;-74
2022/12/25 14:17:59;;;;;;;3.33;2.57;;;17.00;99.90;;;;;;4969798;28;20639;-74
2022/12/25 14:20:29;;;;;;;2.47;2.10;;;16.90;99.90;;;;;;4970000;28;20456;-75
2022/12/25 14:22:58;;;;;;;2.27;2.00;;;16.90;99.90;;;;;;4969830;28;20532;-74
2022/12/25 14:25:29;;;;;;;5.03;2.17;;;16.90;99.90;;;;;;4970264;28;20555;-74
2022/12/25 14:27:57;;;;;;;3.40;2.80;;;16.80;99.90;;;;;;4969390;28;20457;-74
2022/12/25 14:30:27;;;;;;;2.73;2.20;;;16.80;99.90;;;;;;4969833;28;20979;-74
2022/12/25 14:32:54;;;;;;;3.10;2.53;;;16.70;99.90;;;;;;4969868;28;20502;-74
2022/12/25 14:35:22;;;;;;;4.90;3.03;;;16.60;99.90;;;;;;4969439;28;20927;-74
2022/12/25 14:37:55;;;;;;;3.13;2.40;;;16.50;99.90;;;;;;4969123;28;20465;-74
2022/12/25 14:40:25;;;;;;;3.50;2.50;;;16.40;99.90;;;;;;4970736;28;20452;-74
2022/12/25 14:42:56;;;;;;;4.13;2.60;;;16.20;99.90;;;;;;4968389;28;20456;-74
2022/12/25 14:45:29;;;;;;;6.13;2.70;;;16.20;99.90;;;;;;4969681;28;20845;-74
2022/12/25 14:47:57;;;;;;;2.40;2.20;;;16.00;99.90;;;;;;4968517;28;20539;-74
2022/12/25 14:50:30;;;;;;;2.70;2.50;;;15.90;99.90;;;;;;4969459;28;20455;-74
2022/12/25 14:52:59;;;;;;;3.37;3.07;;;15.80;99.90;;;;;;4969172;28;20498;-74
2022/12/25 14:55:28;;;;;;;3.53;2.70;;;15.70;99.90;;;;;;4969757;28;20464;-74
2022/12/25 14:57:58;;;;;;;3.90;2.63;;;15.60;99.90;;;;;;4968457;28;20462;-74
2022/12/25 15:00:30;;;;;;;3.20;2.60;;;15.50;99.90;;;;;;4968746;28;20457;-74
2022/12/25 15:02:58;;;;;;;3.63;2.50;;;15.40;99.90;;;;;;4969557;28;20481;-74
2022/12/25 15:05:31;;;;;;;2.50;2.13;;;15.30;99.90;;;;;;4968972;28;20782;-74
2022/12/25 15:08:15;;;;;;;3.03;2.50;;;15.20;99.90;;;;;;4968570;28;20452;-74
2022/12/25 15:10:42;;;;;;;4.27;2.67;;;15.10;99.90;;;;;;4965372;28;20515;-74
2022/12/25 15:13:08;;;;;;;5.20;3.10;;;15.00;99.90;;;;;;4969130;28;20500;-74
2022/12/25 15:15:35;;;;;;;2.80;2.50;;;14.90;99.90;;;;;;4969332;28;21238;-74
2022/12/25 15:18:04;;;;;;;3.60;2.53;;;14.80;99.90;;;;;;4968521;28;20455;-74
2022/12/25 15:20:32;;;;;;;5.67;3.20;;;14.80;99.90;;;;;;4968946;28;21012;-74
2022/12/25 15:23:02;;;;;;;4.30;3.30;;;14.70;99.90;;;;;;4968547;28;20459;-73
2022/12/25 15:25:28;;;;;;;3.17;2.80;;;14.70;99.90;;;;;;4968777;28;20452;-74
2022/12/25 15:27:55;;;;;;;6.70;3.40;;;14.50;99.90;;;;;;4968589;28;20456;-73
2022/12/25 15:30:23;;;;;;;4.53;2.87;;;14.50;99.90;;;;;;4968918;28;20555;-74
2022/12/25 15:32:50;;;;;;;3.90;3.20;;;14.40;99.90;;;;;;4968678;28;20860;-74
2022/12/25 15:35:20;;;;;;;3.90;3.20;;;14.30;99.90;;;;;;4968821;28;20456;-75
2022/12/25 15:37:47;;;;;;;4.83;3.47;;;14.30;99.90;;;;;;4967765;28;20467;-75
2022/12/25 15:40:16;;;;;;;5.50;3.70;;;14.20;99.90;;;;;;4968761;28;20459;-74
2022/12/25 15:42:43;;;;;;;6.70;3.70;;;14.20;99.90;;;;;;4968870;28;20457;-73
2022/12/25 15:45:19;;;;;;;5.90;4.30;;;14.10;99.90;;;;;;4967738;28;20438;-73
2022/12/25 15:47:46;;;;;;;5.17;4.20;;;14.30;99.90;;;;;;4971045;28;20196;-73
2022/12/25 15:50:13;;;;;;;6.27;3.90;;;14.20;99.90;;;;;;4971558;28;20448;-78
2022/12/25 15:52:40;;;;;;;7.77;4.63;;;14.10;99.90;;;;;;4969164;28;20500;-75
2022/12/25 15:55:08;;;;;;;5.17;4.00;;;14.10;99.90;;;;;;4968343;28;20461;-76
2022/12/25 15:57:37;;;;;;;8.50;6.43;;;14.00;99.90;;;;;;4968689;28;20460;-76
2022/12/25 16:00:06;;;;;;;9.33;8.07;;;13.80;99.90;;;;;;4969583;28;20463;-77
2022/12/25 16:02:33;;;;;;;16.03;10.27;;;13.70;99.90;;;;;;4969423;28;20488;-75
2022/12/25 16:05:00;;;;;;;15.00;11.30;;;13.70;99.90;;;;;;4970599;28;20968;-79
2022/12/25 16:07:28;;;;;;;21.87;16.70;;;13.60;99.90;;;;;;4970021;28;20927;-79
2022/12/25 16:09:54;;;;;;;13.20;9.20;;;13.50;99.90;;;;;;4971820;28;20456;-80
2022/12/25 16:12:21;;;;;;;12.07;9.37;;;13.40;99.90;;;;;;4973288;28;20468;-78
2022/12/25 16:14:49;;;;;;;11.40;8.73;;;13.30;99.90;;;;;;4970970;28;20452;-74
2022/12/25 16:17:16;;;;;;;10.53;7.70;;;13.20;99.90;;;;;;4969424;28;20457;-79
2022/12/25 16:19:44;;;;;;;11.53;8.37;;;13.20;99.90;;;;;;4972142;28;20453;-76
2022/12/25 16:22:11;;;;;;;12.70;8.60;;;13.20;99.90;;;;;;4953818;28;20532;-78
2022/12/25 16:24:38;;;;;;;21.90;16.43;;;13.20;99.90;;;;;;4968311;28;20444;-77
2022/12/25 16:27:08;;;;;;;26.40;17.63;;;13.20;99.90;;;;;;4987040;28;21286;-76
2022/12/25 16:29:34;;;;;;;19.97;15.60;;;13.10;99.90;;;;;;4983546;28;20458;-81
2022/12/25 16:32:03;;;;;;;18.73;14.60;;;13.00;99.90;;;;;;4977143;28;20471;-76
2022/12/25 16:34:30;;;;;;;23.23;15.90;;;13.00;99.90;;;;;;4977044;28;20500;-76
2022/12/25 16:36:56;;;;;;;22.27;15.20;;;12.90;99.90;;;;;;4983794;28;20551;-73
2022/12/25 16:39:23;;;;;;;21.40;15.70;;;12.90;99.90;;;;;;4981735;28;20983;-72
2022/12/25 16:41:50;;;;;;;27.33;19.80;;;12.90;99.90;;;;;;4967267;28;20477;-73
2022/12/25 16:44:17;;;;;;;25.00;18.20;;;12.80;99.90;;;;;;4966239;28;20453;-73
2022/12/25 16:46:44;;;;;;;21.90;17.10;;;12.70;99.90;;;;;;4960549;28;20453;-73
2022/12/25 16:49:12;;;;;;;23.97;17.10;;;12.70;99.90;;;;;;4948911;28;20456;-73
2022/12/25 16:51:39;;;;;;;25.53;16.27;;;12.70;99.90;;;;;;4954291;28;20503;-73
2022/12/25 16:54:05;;;;;;;21.97;15.20;;;12.70;99.90;;;;;;4961782;28;20505;-72
2022/12/25 16:56:35;;;;;;;24.40;17.03;;;12.60;99.90;;;;;;4949112;28;20457;-72
2022/12/25 16:59:02;;;;;;;22.57;16.70;;;12.60;99.90;;;;;;4974682;28;20535;-72
2022/12/25 17:01:29;;;;;;;25.43;17.50;;;12.60;99.90;;;;;;4975054;28;20480;-73
2022/12/25 17:04:00;;;;;;;27.70;18.87;;;12.50;99.90;;;;;;4967478;28;20453;-72
2022/12/25 17:06:28;;;;;;;26.67;16.17;;;12.50;99.90;;;;;;4969214;28;20451;-72
2022/12/25 17:08:58;;;;;;;22.87;15.90;;;12.40;99.90;;;;;;4986544;28;20538;-72
2022/12/25 17:11:28;;;;;;;21.20;15.57;;;12.40;99.90;;;;;;4986153;28;20534;-72
2022/12/25 17:13:55;;;;;;;17.87;14.10;;;12.40;99.90;;;;;;4986582;28;20503;-72
2022/12/25 17:16:24;;;;;;;18.67;13.00;;;12.50;99.90;;;;;;4985600;28;21252;-73
2022/12/25 17:18:54;;;;;;;18.53;13.77;;;12.50;99.90;;;;;;4986303;28;20558;-73
2022/12/25 17:21:21;;;;;;;19.73;12.43;;;12.50;99.90;;;;;;4986261;28;20479;-73
2022/12/25 17:23:49;;;;;;;16.10;11.57;;;12.40;99.90;;;;;;4986203;28;20456;-73
2022/12/25 17:26:16;;;;;;;13.10;10.63;;;12.40;99.90;;;;;;4985591;28;20486;-73
2022/12/25 17:28:43;;;;;;;13.60;8.97;;;12.40;99.90;;;;;;4977677;28;20455;-73
2022/12/25 17:31:12;;;;;;;14.90;9.77;;;12.40;99.90;;;;;;4956613;28;20488;-73
2022/12/25 17:33:40;;;;;;;18.40;9.93;;;12.40;99.90;;;;;;4948463;28;20493;-73
2022/12/25 17:36:09;;;;;;;14.00;10.03;;;12.30;99.90;;;;;;4982578;28;20456;-72
2022/12/25 17:38:36;;;;;;;14.87;8.33;;;12.30;99.90;;;;;;4985748;28;20866;-72
2022/12/25 17:41:07;;;;;;;7.93;7.07;;;12.30;99.90;;;;;;4986100;28;20514;-73
2022/12/25 17:43:36;;;;;;;12.97;8.07;;;12.30;99.90;;;;;;4980904;28;20443;-63
2022/12/25 17:46:05;;;;;;;11.13;7.77;;;12.30;99.90;;;;;;4964991;28;20972;-64
2022/12/25 17:48:32;;;;;;;10.17;7.13;;;12.30;99.90;;;;;;4966752;28;20457;-63
2022/12/25 17:51:00;;;;;;;7.03;5.30;;;12.30;99.90;;;;;;4966426;28;20479;-63
2022/12/25 17:53:27;;;;;;;7.33;5.17;;;12.30;99.90;;;;;;4966650;28;20503;-72
2022/12/25 17:55:56;;;;;;;7.00;5.43;;;12.30;99.90;;;;;;4966078;28;20460;-72
2022/12/25 17:58:24;;;;;;;7.40;5.87;;;12.30;99.90;;;;;;4966444;28;20463;-72